Terminal Aerodrome Forecast
Issued by NWS Springfield, MO

Home | Current Version | Previous Version | Text Only | Print | Product List | Glossary On
Versions: 1 2 3 4 5 6 7 8 9 10 11 12 13 14 15
000
FTUS43 KSGF 260708 AAB
TAFSGF
TAF AMD
KSGF 260708Z 2607/2706 25010KT 2SM TSRA OVC025CB
     FM260800 28008KT 4SM SHRA VCTS OVC010CB
     FM261800 34011KT 2SM SHRA VCTS OVC010CB
     FM270100 32007KT 4SM -SHRA OVC008
     FM270300 31008KT P6SM -SHRA OVC015=

USA.gov is the U.S. government's official web portal to all federal, state and local government web resources and services.